Time;durP1;ratioP1;P1;durP2;ratioP2;P2;SDS_P1;SDS_P2;PMS_P1;PMS_P2;Temp;Humidity;BMP_temperature;BMP_pressure;BME280_temperature;BME280_humidity;BME280_pressure;Samples;Min_cycle;Max_cycle;Signal;HPM_P1;HPM_P2
2021/03/03 00:02:16;;;;;;;;;89.75;65.00;;;;;4.67;74.62;101313.69;4997228;28;8886;-61
2021/03/03 00:04:44;;;;;;;;;90.25;64.00;;;;;4.53;75.69;101314.72;4996925;28;8840;-61
2021/03/03 00:07:11;;;;;;;;;95.50;67.25;;;;;4.55;75.41;101312.03;4980453;28;8855;-61
2021/03/03 00:09:38;;;;;;;;;87.50;62.75;;;;;4.66;74.68;101306.59;4977859;28;8838;-61
2021/03/03 00:12:06;;;;;;;;;88.25;66.50;;;;;4.57;75.12;101316.44;4996962;28;8965;-61
2021/03/03 00:14:33;;;;;;;;;93.25;69.00;;;;;4.30;76.06;101311.41;4993280;28;8831;-61
2021/03/03 00:17:00;;;;;;;;;90.75;67.00;;;;;4.47;74.94;101306.78;4991691;28;8836;-62
2021/03/03 00:19:27;;;;;;;;;91.50;65.75;;;;;4.42;74.68;101297.97;4997198;28;8848;-61
2021/03/03 00:21:54;;;;;;;;;92.00;64.75;;;;;4.32;75.34;101304.31;4996613;28;8954;-62
2021/03/03 00:24:21;;;;;;;;;96.25;72.50;;;;;4.31;76.30;101305.19;4995965;28;8828;-61
2021/03/03 00:26:48;;;;;;;;;85.75;61.00;;;;;4.30;75.85;101308.75;4996038;28;8848;-62
2021/03/03 00:29:15;;;;;;;;;90.50;67.00;;;;;4.30;75.77;101299.00;4996764;28;8895;-62
2021/03/03 00:31:43;;;;;;;;;101.50;72.75;;;;;4.27;75.70;101301.69;4996835;28;8892;-61
2021/03/03 00:34:10;;;;;;;;;103.50;73.00;;;;;4.33;74.91;101298.97;4995633;28;9582;-61
2021/03/03 00:36:37;;;;;;;;;95.75;73.75;;;;;4.11;75.67;101300.94;4988720;28;8934;-62
2021/03/03 00:39:04;;;;;;;;;97.50;72.50;;;;;4.01;75.76;101301.91;4995160;28;8844;-62
2021/03/03 00:41:31;;;;;;;;;100.25;70.75;;;;;4.11;76.92;101297.41;4996801;28;8884;-61
2021/03/03 00:43:58;;;;;;;;;94.00;67.50;;;;;4.09;76.60;101299.19;4997163;28;8856;-61
2021/03/03 00:46:25;;;;;;;;;96.00;70.25;;;;;4.01;76.20;101293.94;4995832;28;8864;-61
2021/03/03 00:48:52;;;;;;;;;94.00;67.00;;;;;3.93;76.47;101303.78;4995430;28;8904;-61
2021/03/03 00:51:19;;;;;;;;;92.25;67.75;;;;;4.05;76.00;101293.00;4996207;28;8829;-62
2021/03/03 00:53:47;;;;;;;;;102.00;73.75;;;;;3.87;76.67;101290.50;4994713;28;8852;-62
2021/03/03 00:56:15;;;;;;;;;99.50;72.75;;;;;3.88;76.01;101297.59;4994920;28;8840;-61
2021/03/03 00:58:42;;;;;;;;;95.00;72.50;;;;;3.73;76.55;101296.81;4996044;28;9627;-62
2021/03/03 01:01:09;;;;;;;;;104.00;74.50;;;;;3.59;77.12;101285.44;4995595;28;8843;-61
2021/03/03 01:03:36;;;;;;;;;95.00;68.25;;;;;3.52;77.38;101281.91;4996125;28;8878;-61
2021/03/03 01:06:03;;;;;;;;;103.00;74.50;;;;;3.28;78.39;101272.34;4988628;28;9540;-61
2021/03/03 01:08:30;;;;;;;;;103.75;72.75;;;;;3.35;77.68;101278.50;4995101;28;8848;-61
2021/03/03 01:10:57;;;;;;;;;102.00;71.50;;;;;3.17;78.00;101284.81;4991039;28;8868;-61
2021/03/03 01:13:24;;;;;;;;;102.50;75.25;;;;;3.20;77.75;101278.59;4984981;28;8852;-61
2021/03/03 01:15:51;;;;;;;;;99.25;74.00;;;;;3.04;78.75;101273.38;4993310;28;8844;-61
2021/03/03 01:18:18;;;;;;;;;99.50;68.25;;;;;2.64;78.79;101272.66;4994243;28;8832;-61
2021/03/03 01:20:45;;;;;;;;;103.25;71.25;;;;;2.02;80.93;101268.38;4995029;28;8851;-61
2021/03/03 01:23:13;;;;;;;;;102.50;69.00;;;;;1.43;82.49;101273.66;4996265;28;8886;-61
2021/03/03 01:25:40;;;;;;;;;88.00;63.25;;;;;0.92;83.10;101267.34;4995485;28;8836;-61
2021/03/03 01:28:09;;;;;;;;;90.75;65.25;;;;;0.97;84.02;101270.03;4996445;28;8840;-61
2021/03/03 01:30:53;;;;;;;;;92.50;67.50;;;;;1.15;82.76;101258.63;4995398;28;9554;-61
2021/03/03 01:33:31;;;;;;;;;100.75;68.25;;;;;0.83;83.46;101262.06;4994361;28;8950;-61
2021/03/03 01:35:58;;;;;;;;;96.50;69.25;;;;;1.11;83.05;101268.31;4994176;28;8848;-61
2021/03/03 01:38:25;;;;;;;;;84.00;62.25;;;;;0.63;83.80;101260.22;4995874;28;8832;-61
2021/03/03 01:40:54;;;;;;;;;93.75;67.00;;;;;0.42;84.50;101263.66;4994933;28;8828;-62
2021/03/03 01:43:21;;;;;;;;;84.25;61.00;;;;;0.33;84.54;101263.59;4994431;28;8852;-61
2021/03/03 01:45:51;;;;;;;;;82.75;61.50;;;;;0.44;84.72;101259.22;4995068;28;8947;-61
2021/03/03 01:48:21;;;;;;;;;86.00;64.00;;;;;0.53;84.94;101263.69;4995394;28;8906;-61
2021/03/03 01:50:48;;;;;;;;;94.25;67.50;;;;;0.42;84.55;101262.75;4995272;28;8840;-61
2021/03/03 01:53:16;;;;;;;;;88.00;64.75;;;;;0.19;85.02;101262.63;4995512;28;8864;-61
2021/03/03 01:55:43;;;;;;;;;80.25;56.75;;;;;0.09;85.28;101259.03;4995001;28;8946;-61
2021/03/03 01:58:10;;;;;;;;;83.50;61.00;;;;;0.32;84.48;101268.88;4995216;28;8836;-61
2021/03/03 02:00:38;;;;;;;;;80.00;58.00;;;;;0.01;85.79;101260.75;4994937;28;8836;-61
2021/03/03 02:03:06;;;;;;;;;84.75;63.25;;;;;0.25;85.35;101264.41;4995771;28;8852;-61
2021/03/03 02:05:33;;;;;;;;;89.50;62.00;;;;;-0.02;86.75;101260.72;4994601;28;8817;-61
2021/03/03 02:08:13;;;;;;;;;89.75;58.75;;;;;0.29;86.01;101252.97;4993087;28;8833;-61
2021/03/03 02:11:28;;;;;;;;;84.50;59.75;;;;;0.14;85.84;101248.50;4993094;28;8844;-62
2021/03/03 02:14:07;;;;;;;;;75.25;56.00;;;;;-0.17;85.86;101257.97;5009705;28;8944;-61
2021/03/03 02:16:37;;;;;;;;;81.00;60.50;;;;;-0.08;86.58;101255.38;4993989;28;8825;-62
2021/03/03 02:19:06;;;;;;;;;82.75;62.00;;;;;-0.33;86.88;101252.56;4994174;28;9546;-62
2021/03/03 02:21:39;;;;;;;;;84.50;65.50;;;;;-0.17;87.96;101252.69;4993810;28;8847;-62
2021/03/03 02:24:27;;;;;;;;;88.75;62.00;;;;;-0.08;87.41;101255.38;4977894;28;9005;-62
2021/03/03 02:26:56;;;;;;;;;88.75;64.00;;;;;-0.03;88.03;101251.03;4992789;28;8990;-61
2021/03/03 02:29:30;;;;;;;;;81.50;59.00;;;;;-0.09;87.89;101243.06;4976958;28;9557;-61
2021/03/03 02:31:58;;;;;;;;;72.25;59.25;;;;;0.27;87.04;101238.91;4992756;28;8848;-61
2021/03/03 02:34:29;;;;;;;;;82.50;57.25;;;;;-0.05;87.06;101247.50;4993295;28;8844;-61
2021/03/03 02:36:58;;;;;;;;;83.00;59.75;;;;;0.09;87.04;101243.19;5009118;28;8868;-61
2021/03/03 02:39:27;;;;;;;;;82.75;62.75;;;;;0.06;86.71;101244.94;4992673;28;8856;-61
2021/03/03 02:41:55;;;;;;;;;76.00;57.00;;;;;-0.12;87.52;101245.69;4993736;28;8906;-61
2021/03/03 02:44:25;;;;;;;;;80.75;57.75;;;;;-0.04;87.07;101249.28;4993028;28;8878;-61
2021/03/03 02:46:52;;;;;;;;;82.25;61.00;;;;;-0.09;86.93;101248.34;5008562;28;8848;-61
2021/03/03 02:49:22;;;;;;;;;88.00;66.00;;;;;-0.23;87.56;101253.53;4994083;28;8861;-62
2021/03/03 02:51:49;;;;;;;;;85.00;63.75;;;;;-0.03;87.15;101251.03;4976778;28;8879;-62
2021/03/03 02:54:16;;;;;;;;;94.25;70.00;;;;;0.22;86.81;101252.09;4994162;28;8887;-62
2021/03/03 02:56:44;;;;;;;;;92.00;66.00;;;;;0.24;86.84;101249.44;4992896;28;8844;-61
2021/03/03 02:59:29;;;;;;;;;90.75;65.50;;;;;-0.35;87.86;101254.31;4975491;28;8844;-62
2021/03/03 03:02:02;;;;;;;;;98.00;72.00;;;;;-0.38;88.70;101254.28;4990765;28;8882;-60
2021/03/03 03:04:34;;;;;;;;;127.75;89.25;;;;;-0.76;88.98;101262.75;4991271;28;8868;-61
2021/03/03 03:07:09;;;;;;;;;100.75;69.50;;;;;-1.24;89.01;101253.41;4991034;28;8890;-61
2021/03/03 03:09:40;;;;;;;;;83.50;59.00;;;;;-0.44;88.64;101259.53;4991813;28;8864;-61
2021/03/03 03:12:09;;;;;;;;;88.50;64.75;;;;;-0.01;85.44;101249.28;5009185;28;8843;-61
2021/03/03 03:14:38;;;;;;;;;82.25;60.75;;;;;0.24;82.59;101249.44;4988370;28;8871;-62
2021/03/03 03:17:08;;;;;;;;;84.75;63.00;;;;;-0.45;84.99;101258.63;4991597;28;9631;-61
2021/03/03 03:19:38;;;;;;;;;73.00;51.75;;;;;-0.77;87.18;101255.69;4992757;28;8974;-61
2021/03/03 03:22:09;;;;;;;;;86.50;61.50;;;;;-0.70;87.06;101260.16;4993024;28;8828;-61
2021/03/03 03:24:39;;;;;;;;;87.25;62.75;;;;;-0.67;87.81;101264.56;4993117;28;8999;-62
2021/03/03 03:27:07;;;;;;;;;81.50;61.00;;;;;-0.49;87.42;101270.03;4992657;28;9647;-61
2021/03/03 03:29:37;;;;;;;;;91.50;68.50;;;;;-0.48;88.08;101265.63;4987303;28;8820;-61
2021/03/03 03:32:23;;;;;;;;;103.75;71.50;;;;;-0.23;87.47;101267.59;4990387;28;8840;-62
2021/03/03 03:34:50;;;;;;;;;90.50;64.75;;;;;-0.50;87.39;101270.00;4992215;28;8863;-62
2021/03/03 03:37:19;;;;;;;;;107.25;76.00;;;;;-0.63;88.32;101263.75;4990897;28;8855;-61
2021/03/03 03:39:46;;;;;;;;;142.50;118.00;;;;;-0.40;87.97;101271.84;4989598;28;8883;-62
2021/03/03 03:42:16;;;;;;;;;108.00;78.25;;;;;-0.16;87.32;101259.72;4993377;28;8900;-62
2021/03/03 03:44:46;;;;;;;;;111.75;84.75;;;;;-0.40;87.61;101270.97;5008937;28;8876;-62
2021/03/03 03:47:18;;;;;;;;;107.00;79.00;;;;;-1.18;89.71;101264.03;4993478;28;8931;-62
2021/03/03 03:49:46;;;;;;;;;103.50;73.50;;;;;-0.94;90.88;101267.81;4992047;28;9753;-62
2021/03/03 03:52:18;;;;;;;;;100.00;73.50;;;;;-1.00;90.00;101267.72;4992745;28;8921;-61
2021/03/03 03:54:53;;;;;;;;;94.00;67.75;;;;;-0.90;89.31;101270.47;5007514;28;8927;-62
2021/03/03 03:57:22;;;;;;;;;95.25;69.00;;;;;-0.87;89.06;101269.63;4992226;28;8914;-62
2021/03/03 03:59:49;;;;;;;;;92.00;69.50;;;;;-0.81;89.73;101275.00;4993858;28;8878;-62
2021/03/03 04:02:17;;;;;;;;;94.25;68.25;;;;;-0.74;88.20;101274.19;4993164;28;8990;-62
2021/03/03 04:04:45;;;;;;;;;95.00;70.00;;;;;-0.50;88.35;101270.00;4993139;28;8852;-62
2021/03/03 04:07:12;;;;;;;;;99.75;70.25;;;;;-0.64;88.27;101271.63;4992289;28;8943;-62
2021/03/03 04:09:40;;;;;;;;;100.25;71.50;;;;;-0.70;88.30;101268.06;4993261;28;8845;-61
2021/03/03 04:12:09;;;;;;;;;102.25;73.00;;;;;-0.88;88.37;101268.75;4993684;28;8852;-62
2021/03/03 04:14:37;;;;;;;;;90.25;66.00;;;;;-1.03;88.78;101275.63;4989364;28;8948;-62
2021/03/03 04:17:04;;;;;;;;;99.00;69.25;;;;;-0.77;88.40;101271.50;4974199;28;8882;-62
2021/03/03 04:19:31;;;;;;;;;104.00;72.00;;;;;-0.79;89.15;101268.00;4974321;28;8950;-62
2021/03/03 04:21:58;;;;;;;;;99.00;74.00;;;;;-0.71;89.16;101265.41;4973666;28;8877;-62
2021/03/03 04:24:25;;;;;;;;;103.00;75.00;;;;;-0.86;88.86;101274.06;4989673;28;8843;-62
2021/03/03 04:26:52;;;;;;;;;103.25;71.75;;;;;-1.03;88.74;101270.34;4993123;28;8864;-62
2021/03/03 04:29:19;;;;;;;;;85.00;62.00;;;;;-1.91;89.26;101268.34;4992947;28;8828;-61
2021/03/03 04:31:46;;;;;;;;;94.50;66.00;;;;;-1.67;90.04;101262.53;4992296;28;8856;-62
2021/03/03 04:34:13;;;;;;;;;93.00;68.25;;;;;-1.81;89.65;101276.38;4992543;28;8843;-62
2021/03/03 04:36:40;;;;;;;;;91.00;65.50;;;;;-2.06;89.70;101275.13;4992320;28;8875;-62
2021/03/03 04:39:06;;;;;;;;;87.00;60.25;;;;;-2.15;88.89;101272.34;4993570;28;8856;-62
2021/03/03 04:41:34;;;;;;;;;80.50;57.25;;;;;-2.19;89.59;101267.00;4993129;28;8879;-62
2021/03/03 04:44:01;;;;;;;;;83.00;60.00;;;;;-1.43;88.44;101272.50;4993467;28;8857;-61
2021/03/03 04:46:28;;;;;;;;;85.00;64.50;;;;;-1.53;85.91;101275.88;4995707;28;8983;-62
2021/03/03 04:48:55;;;;;;;;;84.75;60.50;;;;;-1.12;85.81;101271.13;4996951;28;8832;-62
2021/03/03 04:51:23;;;;;;;;;84.75;58.25;;;;;-1.72;86.27;101265.09;4996581;28;8858;-62
2021/03/03 04:53:50;;;;;;;;;87.25;59.50;;;;;-1.74;87.02;101266.81;4996753;28;9623;-61
2021/03/03 04:56:19;;;;;;;;;90.25;64.50;;;;;-0.61;84.70;101267.25;4996718;28;8871;-62
2021/03/03 04:58:46;;;;;;;;;78.50;58.25;;;;;-1.41;85.33;101265.50;4996779;28;8859;-62
2021/03/03 05:01:13;;;;;;;;;88.75;65.25;;;;;-1.40;86.93;101262.00;4996980;28;8840;-61
2021/03/03 05:03:41;;;;;;;;;78.25;56.50;;;;;-1.59;88.06;101272.28;4996470;28;8876;-62
2021/03/03 05:06:08;;;;;;;;;83.00;56.00;;;;;-1.74;88.30;101266.81;4996241;28;8955;-61
2021/03/03 05:08:35;;;;;;;;;74.75;49.00;;;;;-1.71;88.46;101256.34;4996448;28;8852;-62
2021/03/03 05:11:02;;;;;;;;;80.00;56.50;;;;;-1.80;87.97;101262.34;4996616;28;8872;-62
2021/03/03 05:13:29;;;;;;;;;78.50;50.50;;;;;-2.19;88.41;101267.88;4996282;28;8866;-62
2021/03/03 05:15:58;;;;;;;;;82.00;60.50;;;;;-1.95;88.68;101266.50;4989263;28;8962;-62
2021/03/03 05:18:25;;;;;;;;;81.75;59.50;;;;;-1.84;88.39;101265.81;4995426;28;8848;-62
2021/03/03 05:20:52;;;;;;;;;94.00;67.75;;;;;-1.76;87.07;101268.56;4995462;28;8867;-62
2021/03/03 05:23:31;;;;;;;;;81.25;58.75;;;;;-2.24;88.35;101259.94;4996476;28;8855;-62
2021/03/03 05:26:00;;;;;;;;;93.00;63.00;;;;;-1.94;88.93;101270.94;4996337;28;8852;-62
2021/03/03 05:28:28;;;;;;;;;93.00;60.50;;;;;-2.10;88.75;101273.31;4996204;28;8886;-62
2021/03/03 05:30:55;;;;;;;;;91.00;62.00;;;;;-0.99;86.14;101269.53;4995770;28;8955;-61
2021/03/03 05:33:33;;;;;;;;;92.50;67.50;;;;;-0.62;83.02;101273.41;4993819;28;8832;-62
2021/03/03 05:36:03;;;;;;;;;102.25;66.25;;;;;-1.46;85.83;101275.97;4995120;28;8910;-62
2021/03/03 05:38:32;;;;;;;;;115.00;78.75;;;;;-0.92;86.58;101268.72;5011400;28;8833;-62
2021/03/03 05:41:00;;;;;;;;;106.25;74.50;;;;;-0.92;87.39;101268.72;4995579;28;8848;-62
2021/03/03 05:43:29;;;;;;;;;108.00;78.00;;;;;-0.45;86.65;101274.47;4994793;28;8879;-61
2021/03/03 05:45:59;;;;;;;;;105.50;72.75;;;;;-0.19;86.44;101272.91;4994843;28;8867;-62
2021/03/03 05:48:42;;;;;;;;;97.50;69.75;;;;;0.08;85.39;101270.50;4995464;28;8941;-62
2021/03/03 05:51:10;;;;;;;;;99.00;74.50;;;;;0.71;83.31;101269.94;4995779;28;8930;-62
2021/03/03 05:53:38;;;;;;;;;91.75;68.00;;;;;1.00;82.94;101277.97;4995712;28;8867;-62
2021/03/03 05:56:10;;;;;;;;;101.00;72.00;;;;;0.80;82.41;101272.63;4994798;28;8852;-62
2021/03/03 05:58:41;;;;;;;;;95.50;68.75;;;;;1.23;82.03;101273.63;4995616;28;8844;-62
2021/03/03 06:01:10;;;;;;;;;97.00;72.00;;;;;1.29;81.69;101272.75;4995940;28;8860;-61
2021/03/03 06:03:39;;;;;;;;;91.50;70.00;;;;;0.82;83.26;101278.81;4995415;28;9573;-62
2021/03/03 06:06:06;;;;;;;;;97.00;66.00;;;;;0.60;85.11;101281.31;4995366;28;8828;-62
2021/03/03 06:08:34;;;;;;;;;93.00;69.50;;;;;0.78;84.87;101274.38;5010593;28;9982;-62
2021/03/03 06:11:04;;;;;;;;;94.75;66.50;;;;;0.91;84.43;101273.53;4995017;28;8840;-62
2021/03/03 06:13:32;;;;;;;;;96.75;71.00;;;;;1.00;84.82;101276.22;4994154;28;8834;-62
2021/03/03 06:15:59;;;;;;;;;106.25;72.00;;;;;1.47;82.74;101272.78;4993329;28;8832;-62
2021/03/03 06:18:27;;;;;;;;;99.50;70.75;;;;;1.71;82.11;101271.03;5025107;28;8860;-62
2021/03/03 06:20:56;;;;;;;;;86.50;68.75;;;;;0.94;82.43;101264.72;4993887;28;8828;-61
2021/03/03 06:23:31;;;;;;;;;91.75;61.00;;;;;0.10;83.60;101274.00;5025446;28;8844;-62
2021/03/03 06:25:58;;;;;;;;;92.00;69.25;;;;;0.14;83.85;101278.44;4993821;28;8889;-62
2021/03/03 06:28:32;;;;;;;;;88.00;66.50;;;;;0.50;83.18;101274.25;4993694;28;8846;-62
2021/03/03 06:31:01;;;;;;;;;93.25;63.50;;;;;0.37;82.32;101278.59;4976591;28;8834;-61
2021/03/03 06:33:28;;;;;;;;;93.00;67.50;;;;;0.30;82.79;101271.50;5009350;28;8960;-61
2021/03/03 06:35:56;;;;;;;;;78.50;59.00;;;;;0.91;81.99;101278.81;5008843;28;8863;-61
2021/03/03 06:38:28;;;;;;;;;108.25;77.00;;;;;0.65;82.46;101263.72;5008940;28;8860;-61
2021/03/03 06:41:07;;;;;;;;;102.75;72.25;;;;;0.65;82.60;101274.31;4992384;28;8838;-61
2021/03/03 06:43:34;;;;;;;;;92.00;67.50;;;;;1.37;80.91;101265.75;4993508;28;9646;-61
2021/03/03 06:46:18;;;;;;;;;93.00;69.50;;;;;1.10;82.31;101271.81;4994708;28;9514;-60
2021/03/03 06:48:46;;;;;;;;;95.75;70.00;;;;;1.44;82.31;101262.19;4994006;28;8848;-61
2021/03/03 06:51:31;;;;;;;;;99.75;66.75;;;;;2.00;80.20;101275.44;5009936;28;8846;-61
2021/03/03 06:54:17;;;;;;;;;167.50;127.75;;;;;1.69;80.83;101267.53;4993834;28;8844;-61
2021/03/03 06:56:47;;;;;;;;;111.00;77.25;;;;;2.04;80.99;101256.91;4994393;28;8848;-61
2021/03/03 06:59:21;;;;;;;;;98.00;71.50;;;;;2.85;77.30;101259.31;4994500;28;8844;-61
2021/03/03 07:01:54;;;;;;;;;97.25;74.75;;;;;3.44;76.88;101266.94;4994570;28;8848;-61
2021/03/03 07:04:37;;;;;;;;;96.25;68.50;;;;;10.38;55.36;101264.03;4994756;28;8848;-61
2021/03/03 07:07:12;;;;;;;;;87.00;64.25;;;;;13.34;45.53;101259.81;4994391;28;8871;-62
2021/03/03 07:10:01;;;;;;;;;83.50;64.25;;;;;14.64;42.13;101262.31;4977939;28;8840;-62
2021/03/03 07:12:33;;;;;;;;;81.75;64.25;;;;;13.93;43.54;101265.97;4994460;28;8848;-62
2021/03/03 07:15:09;;;;;;;;;86.67;63.00;;;;;13.96;43.12;101267.63;4986861;28;8870;-62
2021/03/03 07:17:36;;;;;;;;;91.67;72.00;;;;;13.15;44.03;101264.31;4958117;28;9588;-62
2021/03/03 07:20:10;;;;;;;;;87.50;68.75;;;;;6.26;63.91;101266.06;4973641;28;8886;-62
2021/03/03 07:22:51;;;;;;;;;92.50;70.75;;;;;5.32;67.50;101261.41;4974140;28;8952;-62
2021/03/03 07:25:20;;;;;;;;;89.75;66.75;;;;;5.80;68.27;101263.31;4974477;28;8862;-62
2021/03/03 07:27:49;;;;;;;;;95.75;70.75;;;;;6.18;67.66;101269.78;4975061;28;8862;-62
2021/03/03 07:30:17;;;;;;;;;98.25;70.00;;;;;6.43;67.50;101267.56;4975034;28;8877;-61
2021/03/03 07:32:45;;;;;;;;;88.75;68.75;;;;;6.42;67.53;101265.78;4974788;28;8850;-61
2021/03/03 07:35:31;;;;;;;;;90.50;69.25;;;;;6.60;68.22;101262.75;4974962;28;8953;-61
2021/03/03 07:38:02;;;;;;;;;84.25;61.50;;;;;6.96;66.77;101269.16;4974332;28;8847;-61
2021/03/03 07:40:31;;;;;;;;;84.25;65.25;;;;;7.23;67.28;101256.97;4974169;28;8878;-62
2021/03/03 07:43:01;;;;;;;;;82.50;60.00;;;;;7.64;63.44;101262.28;4973342;28;8850;-62
2021/03/03 07:45:39;;;;;;;;;87.75;65.50;;;;;7.61;64.97;101255.22;4974660;28;8901;-61
2021/03/03 07:48:12;;;;;;;;;87.00;63.50;;;;;7.62;66.61;101262.31;4974748;28;8888;-62
2021/03/03 07:50:41;;;;;;;;;71.75;51.25;;;;;7.98;62.58;101259.66;4974720;28;9002;-62
2021/03/03 07:53:10;;;;;;;;;82.75;57.00;;;;;8.25;61.61;101257.16;4974823;28;8884;-61
2021/03/03 07:55:38;;;;;;;;;80.00;56.25;;;;;8.49;60.76;101251.16;4989984;28;8863;-62
2021/03/03 07:58:10;;;;;;;;;71.25;55.50;;;;;8.66;60.79;101252.50;4973604;28;8925;-63
2021/03/03 08:00:40;;;;;;;;;74.50;55.50;;;;;8.94;59.59;101252.56;4957551;28;8831;-62
2021/03/03 08:03:08;;;;;;;;;99.25;70.00;;;;;8.79;61.32;101251.22;4973692;28;8933;-61
2021/03/03 08:05:52;;;;;;;;;90.00;66.25;;;;;9.42;60.68;101250.19;4973753;28;8863;-62
2021/03/03 08:08:26;;;;;;;;;84.00;63.25;;;;;9.27;58.11;101248.00;4973506;28;8925;-62
2021/03/03 08:10:59;;;;;;;;;80.00;56.00;;;;;9.29;58.11;101248.81;4974187;28;9726;-62
2021/03/03 08:13:34;;;;;;;;;82.50;59.25;;;;;9.19;57.94;101247.38;4974408;28;8838;-61
2021/03/03 08:16:04;;;;;;;;;77.00;55.00;;;;;9.32;57.78;101242.47;4989350;28;8830;-61
2021/03/03 08:18:33;;;;;;;;;74.33;53.67;;;;;9.76;57.23;101248.22;4993763;28;8935;-62
2021/03/03 08:21:08;;;;;;;;;69.00;53.67;;;;;9.87;58.13;101244.28;4997455;28;8822;-62
2021/03/03 08:23:37;;;;;;;;;69.33;53.00;;;;;10.00;55.74;101254.56;4997229;28;8860;-62
2021/03/03 08:26:16;;;;;;;;;62.00;49.33;;;;;10.04;56.41;101250.88;4997488;28;8862;-62
2021/03/03 08:28:44;;;;;;;;;59.67;46.67;;;;;10.16;54.12;101247.75;4997411;28;8858;-61
2021/03/03 08:31:14;;;;;;;;;68.00;50.67;;;;;10.45;54.72;101252.13;4997527;28;8834;-61
2021/03/03 08:33:48;;;;;;;;;55.00;39.33;;;;;10.29;51.50;101249.13;4997185;28;9604;-61
2021/03/03 08:36:26;;;;;;;;;50.33;40.67;;;;;10.76;54.50;101249.19;4997368;28;8964;-61
2021/03/03 08:38:55;;;;;;;;;51.67;42.67;;;;;10.50;54.57;101244.75;4997268;28;8861;-61
2021/03/03 08:41:28;;;;;;;;;58.67;46.33;;;;;10.63;53.35;101247.88;4978305;28;8839;-61
2021/03/03 08:44:16;;;;;;;;;56.67;41.67;;;;;11.05;52.65;101255.28;4977481;28;8846;-61
2021/03/03 08:46:44;;;;;;;;;63.00;43.33;;;;;11.25;54.98;101248.25;4993052;28;9529;-61
2021/03/03 08:49:12;;;;;;;;;61.67;45.00;;;;;10.91;55.06;101246.88;4977715;28;8843;-61
2021/03/03 08:51:49;;;;;;;;;50.67;39.67;;;;;11.11;54.88;101248.78;4977552;28;8847;-62
2021/03/03 08:54:36;;;;;;;;;47.33;39.00;;;;;11.46;53.46;101247.41;4960695;28;8859;-61
2021/03/03 08:57:03;;;;;;;;;47.33;38.33;;;;;11.27;54.62;101247.25;4977032;28;8894;-61
2021/03/03 08:59:36;;;;;;;;;39.00;31.67;;;;;11.81;53.21;101245.94;4977443;28;8851;-62
2021/03/03 09:02:17;;;;;;;;;46.00;35.33;;;;;11.60;52.78;101249.53;4976922;28;11732;-61
2021/03/03 09:04:55;;;;;;;;;51.33;37.00;;;;;11.46;52.55;101244.72;4976462;28;8890;-61
2021/03/03 09:07:31;;;;;;;;;46.00;37.00;;;;;11.49;52.48;101249.97;4976113;28;11784;-60
2021/03/03 09:10:15;;;;;;;;;46.33;34.67;;;;;12.02;50.87;101241.50;4976768;28;8843;-57
2021/03/03 09:12:45;;;;;;;;;42.25;34.25;;;;;12.37;51.80;101247.19;4977137;28;11631;-58
2021/03/03 09:15:16;;;;;;;;;50.25;35.50;;;;;12.34;50.52;101241.94;4986264;28;11705;-58
2021/03/03 09:17:45;;;;;;;;;34.50;32.00;;;;;12.66;50.90;101231.53;4995837;28;11633;-58
2021/03/03 09:20:23;;;;;;;;;40.75;28.50;;;;;12.56;50.45;101239.19;4996444;28;11591;-58
2021/03/03 09:22:50;;;;;;;;;46.00;32.50;;;;;12.27;48.56;101237.78;4996553;28;11605;-58
2021/03/03 09:25:24;;;;;;;;;38.25;34.00;;;;;12.27;47.53;101233.25;4996247;28;11698;-58
2021/03/03 09:27:52;;;;;;;;;50.00;37.33;;;;;12.12;46.84;101235.75;4996067;28;11589;-59
2021/03/03 09:30:21;;;;;;;;;26.75;23.50;;;;;12.24;47.02;101229.81;4995605;28;11720;-60
2021/03/03 09:32:51;;;;;;;;;41.50;32.75;;;;;12.02;47.92;101230.75;4995961;28;11613;-60
2021/03/03 09:35:31;;;;;;;;;38.25;32.50;;;;;12.66;45.98;101228.84;4996399;28;11631;-60
2021/03/03 09:37:59;;;;;;;;;30.75;28.25;;;;;12.17;47.47;101231.91;4995911;28;11607;-59
2021/03/03 09:40:33;;;;;;;;;42.00;34.00;;;;;12.51;46.78;101223.22;4995820;28;11715;-58
2021/03/03 09:43:01;;;;;;;;;32.75;25.75;;;;;12.55;44.78;101223.94;4995988;28;11691;-59
2021/03/03 09:45:29;;;;;;;;;35.25;29.50;;;;;12.39;46.88;101225.56;4996077;28;11617;-58
2021/03/03 09:47:57;;;;;;;;;33.25;27.25;;;;;12.40;45.41;101233.59;4995137;28;11596;-58
2021/03/03 09:50:33;;;;;;;;;34.50;27.75;;;;;12.90;45.13;101226.84;4994762;28;11697;-57
2021/03/03 09:53:00;;;;;;;;;37.25;29.50;;;;;12.83;44.71;101228.97;4995995;28;11601;-58
2021/03/03 09:55:34;;;;;;;;;38.75;29.00;;;;;12.80;45.68;101226.41;4995848;28;11609;-58
2021/03/03 09:58:03;;;;;;;;;37.00;28.00;;;;;12.64;45.29;101220.84;4995804;28;11649;-58
2021/03/03 10:00:37;;;;;;;;;40.50;27.75;;;;;12.70;45.48;101219.69;4995762;28;11649;-58
2021/03/03 10:03:14;;;;;;;;;34.75;27.25;;;;;13.06;44.70;101221.59;4994759;28;12438;-58
2021/03/03 10:05:43;;;;;;;;;42.75;34.75;;;;;12.85;44.96;101216.28;4995649;28;11624;-58
2021/03/03 10:08:13;;;;;;;;;42.25;33.00;;;;;12.91;45.42;101224.06;4995186;28;11593;-59
2021/03/03 10:10:47;;;;;;;;;46.50;35.00;;;;;12.86;45.59;101220.72;5010753;28;12206;-58
2021/03/03 10:13:23;;;;;;;;;41.00;32.00;;;;;13.24;44.17;101219.84;4994316;28;11567;-58
2021/03/03 10:15:56;;;;;;;;;30.25;25.00;;;;;13.02;44.18;101212.78;4994166;28;11641;-59
2021/03/03 10:18:23;;;;;;;;;36.25;30.00;;;;;13.12;44.55;101216.81;4994922;28;12355;-58
2021/03/03 10:20:56;;;;;;;;;34.25;31.75;;;;;13.46;43.09;101220.59;4995178;28;11621;-58
2021/03/03 10:23:27;;;;;;;;;27.75;20.75;;;;;13.26;42.49;101205.38;4995149;28;11626;-58
2021/03/03 10:26:08;;;;;;;;;32.00;28.00;;;;;13.33;42.85;101209.53;4995089;28;11631;-58
2021/03/03 10:28:38;;;;;;;;;36.25;29.75;;;;;13.37;43.15;101199.47;4994084;28;11716;-59
2021/03/03 10:31:08;;;;;;;;;34.00;24.75;;;;;13.51;42.18;101196.09;4995043;28;11743;-58
2021/03/03 10:33:38;;;;;;;;;30.75;27.00;;;;;13.55;41.51;101197.69;4994706;28;11699;-58
2021/03/03 10:36:17;;;;;;;;;34.00;30.50;;;;;14.18;43.23;101202.56;4993860;28;11610;-59
2021/03/03 10:38:53;;;;;;;;;45.75;33.00;;;;;13.49;42.38;101192.59;4994074;28;11597;-59
2021/03/03 10:41:34;;;;;;;;;34.25;27.50;;;;;13.60;43.33;101187.53;5009532;28;11643;-59
2021/03/03 10:44:06;;;;;;;;;37.25;32.00;;;;;13.42;42.49;101186.63;4994066;28;11692;-58
2021/03/03 10:46:43;;;;;;;;;35.50;30.75;;;;;13.57;42.79;101185.84;4994857;28;11638;-59
2021/03/03 10:49:18;;;;;;;;;37.75;29.75;;;;;13.23;41.82;101170.44;4994489;28;11627;-58
2021/03/03 10:51:46;;;;;;;;;35.75;30.50;;;;;13.75;42.29;101173.28;4994588;28;11600;-59
2021/03/03 10:54:28;;;;;;;;;31.25;27.00;;;;;13.90;42.08;101166.22;4994633;28;12358;-59
2021/03/03 10:57:06;;;;;;;;;34.50;31.00;;;;;14.09;42.05;101162.56;4994470;28;11607;-58
2021/03/03 10:59:33;;;;;;;;;39.00;33.75;;;;;14.24;42.20;101149.13;4994209;28;11720;-59
2021/03/03 11:02:02;;;;;;;;;41.25;30.75;;;;;14.59;41.68;101146.34;4994031;28;11589;-58
2021/03/03 11:04:45;;;;;;;;;35.25;28.50;;;;;14.19;42.70;101145.78;4995007;28;11635;-58
2021/03/03 11:07:15;;;;;;;;;31.25;26.50;;;;;14.16;41.37;101142.34;4993178;28;11711;-58
2021/03/03 11:09:50;;;;;;;;;41.75;34.00;;;;;14.51;42.33;101137.75;4993193;28;11675;-58
2021/03/03 11:12:25;;;;;;;;;35.50;25.25;;;;;14.08;41.27;101131.94;4994266;28;11621;-58
2021/03/03 11:14:52;;;;;;;;;41.00;30.50;;;;;14.34;42.12;101132.41;4993155;28;11571;-59
2021/03/03 11:17:19;;;;;;;;;35.75;30.25;;;;;14.33;42.09;101131.53;4994368;28;12485;-58
2021/03/03 11:19:46;;;;;;;;;35.00;27.75;;;;;14.52;42.71;101120.59;4994274;28;11635;-59
2021/03/03 11:22:13;;;;;;;;;33.75;29.75;;;;;14.83;41.33;101119.78;4993968;28;11592;-60
2021/03/03 11:24:40;;;;;;;;;32.50;29.50;;;;;14.78;42.26;101115.59;4993983;28;11617;-58
2021/03/03 11:27:07;;;;;;;;;42.25;34.00;;;;;14.75;40.97;101115.78;4994199;28;11624;-60
2021/03/03 11:29:34;;;;;;;;;33.75;29.25;;;;;14.92;40.56;101110.28;4993921;28;11617;-59
2021/03/03 11:32:18;;;;;;;;;42.00;32.25;;;;;14.86;41.19;101097.97;4993994;28;11623;-59
2021/03/03 11:34:45;;;;;;;;;32.50;27.75;;;;;14.76;40.95;101101.28;4994426;28;11608;-59